createdAt,value
2016-12-14T00:00:39.165Z,1017.07
2016-12-14T00:01:39.147Z,1017.05
2016-12-14T00:02:39.141Z,1017.06
2016-12-14T00:03:39.116Z,1017.08
2016-12-14T00:04:39.101Z,1017.03
2016-12-14T00:05:39.081Z,1016.99
2016-12-14T00:06:39.066Z,1017.03
2016-12-14T00:07:39.053Z,1016.99
2016-12-14T00:08:39.036Z,1017.02
2016-12-14T00:09:39.015Z,1016.98
2016-12-14T00:10:39.002Z,1017.02
2016-12-14T00:11:38.986Z,1017.01
2016-12-14T00:12:38.969Z,1017.03
2016-12-14T00:13:38.952Z,1017.04
2016-12-14T00:14:38.939Z,1017.04
2016-12-14T00:15:38.918Z,1017.01
2016-12-14T00:16:38.906Z,1016.97
2016-12-14T00:17:38.887Z,1016.97
2016-12-14T00:18:38.873Z,1017.03
2016-12-14T00:19:38.853Z,1017.03
2016-12-14T00:20:38.836Z,1017.04
2016-12-14T00:21:38.822Z,1017.02
2016-12-14T00:22:38.805Z,1017.01
2016-12-14T00:23:38.786Z,1017.03
2016-12-14T00:24:38.771Z,1017.05
2016-12-14T00:25:38.754Z,1017.03
2016-12-14T00:26:38.738Z,1017.08
2016-12-14T00:27:38.723Z,1017.05
2016-12-14T00:28:38.705Z,1017.07
2016-12-14T00:29:38.689Z,1017.06
2016-12-14T00:30:38.672Z,1017.03
2016-12-14T00:31:38.657Z,1017.02
2016-12-14T00:32:38.641Z,1017.1
2016-12-14T00:33:38.624Z,1017.1
2016-12-14T00:34:38.609Z,1017.08
2016-12-14T00:35:38.589Z,1017.09
2016-12-14T00:36:38.574Z,1017.07
2016-12-14T00:37:38.557Z,1017.08
2016-12-14T00:38:38.540Z,1017.07
2016-12-14T00:39:38.525Z,1017.05
2016-12-14T00:40:38.508Z,1017.03
2016-12-14T00:41:38.491Z,1017.06
2016-12-14T00:42:38.477Z,1017.06
2016-12-14T00:43:38.460Z,1017.06
2016-12-14T00:44:38.443Z,1017.05
2016-12-14T00:45:38.422Z,1017.1
2016-12-14T00:46:38.409Z,1017.06
2016-12-14T00:47:38.393Z,1017.07
2016-12-14T00:48:38.376Z,1017.11
2016-12-14T00:49:38.368Z,1017.13
2016-12-14T00:50:38.343Z,1017.12
2016-12-14T00:51:38.327Z,1017.08
2016-12-14T00:52:38.309Z,1017.11
2016-12-14T00:53:38.293Z,1017.11
2016-12-14T00:54:38.277Z,1017.08
2016-12-14T00:55:38.263Z,1017.11
2016-12-14T00:56:38.244Z,1017.08
2016-12-14T00:57:38.229Z,1017.11
2016-12-14T00:58:38.212Z,1017.12
2016-12-14T00:59:38.194Z,1017.14
2016-12-14T01:00:38.177Z,1017.1
2016-12-14T01:01:38.159Z,1017.12
2016-12-14T01:02:38.145Z,1017.1
2016-12-14T01:03:38.128Z,1017.12
2016-12-14T01:04:38.111Z,1017.09
2016-12-14T01:05:38.095Z,1017.02
2016-12-14T01:06:38.078Z,1017.01
2016-12-14T01:07:38.063Z,1016.99
2016-12-14T01:08:38.046Z,1017
2016-12-14T01:09:38.030Z,1016.98
2016-12-14T01:10:38.012Z,1017.01
2016-12-14T01:11:37.996Z,1017.01
2016-12-14T01:12:37.985Z,1017.01
2016-12-14T01:13:37.964Z,1017.02
2016-12-14T01:14:37.948Z,1017.01
2016-12-14T01:15:37.929Z,1016.96
2016-12-14T01:16:37.916Z,1017.03
2016-12-14T01:17:37.897Z,1016.98
2016-12-14T01:18:37.882Z,1016.97
2016-12-14T01:19:37.866Z,1017
2016-12-14T01:20:37.849Z,1016.94
2016-12-14T01:21:37.832Z,1016.96
2016-12-14T01:22:37.815Z,1016.97
2016-12-14T01:23:37.797Z,1016.93
2016-12-14T01:24:37.782Z,1016.93
2016-12-14T01:25:37.766Z,1016.91
2016-12-14T01:26:37.752Z,1016.87
2016-12-14T01:27:37.732Z,1016.91
2016-12-14T01:28:37.715Z,1016.87
2016-12-14T01:29:37.698Z,1016.88
2016-12-14T01:30:37.682Z,1016.89
2016-12-14T01:31:37.666Z,1016.87
2016-12-14T01:32:37.654Z,1016.85
2016-12-14T01:33:37.631Z,1016.86
2016-12-14T01:34:37.616Z,1016.85
2016-12-14T01:35:37.600Z,1016.87
2016-12-14T01:36:37.583Z,1016.84
2016-12-14T01:37:37.568Z,1016.86
2016-12-14T01:38:37.548Z,1016.84
2016-12-14T01:39:37.534Z,1016.78
2016-12-14T01:40:37.516Z,1016.84
2016-12-14T01:41:37.503Z,1016.79
2016-12-14T01:42:37.485Z,1016.78
2016-12-14T01:43:37.466Z,1016.83
2016-12-14T01:44:37.449Z,1016.8
2016-12-14T01:45:37.432Z,1016.77
2016-12-14T01:46:37.442Z,1016.85
2016-12-14T01:47:37.399Z,1016.85
2016-12-14T01:48:37.384Z,1016.83
2016-12-14T01:49:37.367Z,1016.84
2016-12-14T01:50:37.353Z,1016.8
2016-12-14T01:51:37.332Z,1016.81
2016-12-14T01:52:37.317Z,1016.77
2016-12-14T01:53:37.300Z,1016.76
2016-12-14T01:54:37.283Z,1016.71
2016-12-14T01:55:37.267Z,1016.73
2016-12-14T01:56:37.251Z,1016.73
2016-12-14T01:57:37.233Z,1016.72
2016-12-14T01:58:37.216Z,1016.65
2016-12-14T01:59:37.202Z,1016.69
2016-12-14T02:00:37.183Z,1016.68
2016-12-14T02:01:37.166Z,1016.66
2016-12-14T02:02:37.151Z,1016.65
2016-12-14T02:03:37.134Z,1016.72
2016-12-14T02:04:37.116Z,1016.64
2016-12-14T02:05:37.099Z,1016.66
2016-12-14T02:06:37.084Z,1016.64
2016-12-14T02:07:37.069Z,1016.68
2016-12-14T02:08:37.052Z,1016.57
2016-12-14T02:09:37.034Z,1016.6
2016-12-14T02:10:37.022Z,1016.68
2016-12-14T02:11:37.003Z,1016.6
2016-12-14T02:12:36.982Z,1016.65
2016-12-14T02:13:36.967Z,1016.65
2016-12-14T02:14:36.950Z,1016.7
2016-12-14T02:15:36.935Z,1016.73
2016-12-14T02:16:36.918Z,1016.74
2016-12-14T02:17:36.901Z,1016.76
2016-12-14T02:18:36.885Z,1016.71
2016-12-14T02:19:36.869Z,1016.68
2016-12-14T02:20:36.851Z,1016.71
2016-12-14T02:21:36.833Z,1016.7
2016-12-14T02:22:36.818Z,1016.72
2016-12-14T02:23:36.802Z,1016.71
2016-12-14T02:24:36.784Z,1016.69
2016-12-14T02:25:36.769Z,1016.66
2016-12-14T02:26:36.755Z,1016.7
2016-12-14T02:27:36.734Z,1016.72
2016-12-14T02:28:36.719Z,1016.7
2016-12-14T02:29:36.701Z,1016.66
2016-12-14T02:30:36.689Z,1016.67
2016-12-14T02:31:36.669Z,1016.68
2016-12-14T02:32:36.654Z,1016.71
2016-12-14T02:33:36.633Z,1016.68
2016-12-14T02:34:36.617Z,1016.69
2016-12-14T02:35:36.600Z,1016.7
2016-12-14T02:36:36.585Z,1016.72
2016-12-14T02:37:36.569Z,1016.73
2016-12-14T02:38:36.549Z,1016.71
2016-12-14T02:39:36.535Z,1016.72
2016-12-14T02:40:36.520Z,1016.79
2016-12-14T02:41:36.501Z,1016.71
2016-12-14T02:42:36.483Z,1016.75
2016-12-14T02:43:36.468Z,1016.74
2016-12-14T02:44:36.455Z,1016.74
2016-12-14T02:45:36.434Z,1016.77
2016-12-14T02:46:36.416Z,1016.77
2016-12-14T02:47:36.401Z,1016.73
2016-12-14T02:48:36.384Z,1016.7
2016-12-14T02:49:36.367Z,1016.72
2016-12-14T02:50:36.352Z,1016.73
2016-12-14T02:51:36.334Z,1016.68
2016-12-14T02:52:36.317Z,1016.69
2016-12-14T02:53:36.304Z,1016.68
2016-12-14T02:54:36.285Z,1016.69
2016-12-14T02:55:36.270Z,1016.65
2016-12-14T02:56:36.257Z,1016.69
2016-12-14T02:57:36.235Z,1016.66
2016-12-14T02:58:36.220Z,1016.64
2016-12-14T02:59:36.203Z,1016.61
2016-12-14T03:00:36.187Z,1016.66
2016-12-14T03:01:36.168Z,1016.61
2016-12-14T03:02:36.155Z,1016.61
2016-12-14T03:03:36.136Z,1016.59
2016-12-14T03:04:36.119Z,1016.59
2016-12-14T03:05:36.101Z,1016.6
2016-12-14T03:06:36.086Z,1016.59
2016-12-14T03:07:36.069Z,1016.58
2016-12-14T03:08:36.051Z,1016.61
2016-12-14T03:09:36.036Z,1016.55
2016-12-14T03:10:36.019Z,1016.56
2016-12-14T03:11:36.006Z,1016.57
2016-12-14T03:12:35.985Z,1016.55
2016-12-14T03:13:35.969Z,1016.53
2016-12-14T03:14:35.950Z,1016.54
2016-12-14T03:15:35.935Z,1016.52
2016-12-14T03:16:35.918Z,1016.51
2016-12-14T03:17:35.902Z,1016.5
2016-12-14T03:18:35.887Z,1016.5
2016-12-14T03:19:35.883Z,1016.49
2016-12-14T03:20:35.851Z,1016.5
2016-12-14T03:21:35.836Z,1016.44
2016-12-14T03:22:35.821Z,1016.47
2016-12-14T03:23:35.801Z,1016.47
2016-12-14T03:24:35.785Z,1016.5
2016-12-14T03:25:35.768Z,1016.51
2016-12-14T03:26:35.752Z,1016.5
2016-12-14T03:27:35.736Z,1016.52
2016-12-14T03:28:35.719Z,1016.56
2016-12-14T03:29:35.702Z,1016.55
2016-12-14T03:30:35.684Z,1016.54
2016-12-14T03:31:35.671Z,1016.54
2016-12-14T03:32:35.652Z,1016.58
2016-12-14T03:33:35.635Z,1016.56
2016-12-14T03:34:35.617Z,1016.55
2016-12-14T03:35:35.600Z,1016.58
2016-12-14T03:36:35.583Z,1016.61
2016-12-14T03:37:35.568Z,1016.65
2016-12-14T03:38:35.550Z,1016.65
2016-12-14T03:39:35.533Z,1016.65
2016-12-14T03:40:35.516Z,1016.66
2016-12-14T03:41:35.501Z,1016.65
2016-12-14T03:42:35.483Z,1016.71
2016-12-14T03:43:35.470Z,1016.65
2016-12-14T03:44:35.451Z,1016.68
2016-12-14T03:45:35.436Z,1016.64
2016-12-14T03:46:35.417Z,1016.62
2016-12-14T03:47:35.399Z,1016.6
2016-12-14T03:48:35.382Z,1016.59
2016-12-14T03:49:35.367Z,1016.57
2016-12-14T03:50:35.350Z,1016.57
2016-12-14T03:51:35.332Z,1016.58
2016-12-14T03:52:35.318Z,1016.58
2016-12-14T03:53:35.300Z,1016.55
2016-12-14T03:54:35.283Z,1016.57
2016-12-14T03:55:35.266Z,1016.58
2016-12-14T03:56:35.253Z,1016.55
2016-12-14T03:57:35.233Z,1016.56
2016-12-14T03:58:35.216Z,1016.59
2016-12-14T03:59:35.199Z,1016.59
2016-12-14T04:00:35.184Z,1016.6
2016-12-14T04:01:35.169Z,1016.54
2016-12-14T04:02:35.149Z,1016.53
2016-12-14T04:03:35.132Z,1016.56
2016-12-14T04:04:35.117Z,1016.58
2016-12-14T04:05:35.100Z,1016.57
2016-12-14T04:06:35.083Z,1016.54
2016-12-14T04:07:35.065Z,1016.57
2016-12-14T04:08:35.049Z,1016.56
2016-12-14T04:09:35.031Z,1016.51
2016-12-14T04:10:35.019Z,1016.57
2016-12-14T04:11:34.998Z,1016.53
2016-12-14T04:12:34.983Z,1016.53
2016-12-14T04:13:34.966Z,1016.55
2016-12-14T04:14:34.954Z,1016.55
2016-12-14T04:15:34.934Z,1016.54
2016-12-14T04:16:34.917Z,1016.55
2016-12-14T04:17:34.900Z,1016.53
2016-12-14T04:18:34.882Z,1016.53
2016-12-14T04:19:34.865Z,1016.52
2016-12-14T04:20:34.848Z,1016.51
2016-12-14T04:21:34.833Z,1016.54
2016-12-14T04:22:34.814Z,1016.52
2016-12-14T04:23:34.798Z,1016.49
2016-12-14T04:24:34.781Z,1016.56
2016-12-14T04:25:34.766Z,1016.51
2016-12-14T04:26:34.750Z,1016.5
2016-12-14T04:27:34.735Z,1016.5
2016-12-14T04:28:34.718Z,1016.55
2016-12-14T04:29:34.699Z,1016.52
2016-12-14T04:30:34.682Z,1016.58
2016-12-14T04:31:34.665Z,1016.52
2016-12-14T04:32:34.649Z,1016.55
2016-12-14T04:33:34.634Z,1016.49
2016-12-14T04:34:34.615Z,1016.55
2016-12-14T04:35:34.598Z,1016.51
2016-12-14T04:36:34.583Z,1016.47
2016-12-14T04:37:34.565Z,1016.5
2016-12-14T04:38:34.548Z,1016.52
2016-12-14T04:39:34.531Z,1016.5
2016-12-14T04:40:34.517Z,1016.53
2016-12-14T04:41:34.498Z,1016.5
2016-12-14T04:42:34.483Z,1016.46
2016-12-14T04:43:34.464Z,1016.49
2016-12-14T04:44:34.451Z,1016.48
2016-12-14T04:45:34.432Z,1016.47
2016-12-14T04:46:34.414Z,1016.52
2016-12-14T04:47:34.397Z,1016.53
2016-12-14T04:48:34.385Z,1016.53
2016-12-14T04:49:34.363Z,1016.54
2016-12-14T04:50:34.348Z,1016.51
2016-12-14T04:51:34.333Z,1016.52
2016-12-14T04:52:34.313Z,1016.54
2016-12-14T04:53:34.296Z,1016.55
2016-12-14T04:54:34.281Z,1016.54
2016-12-14T04:55:34.264Z,1016.52
2016-12-14T04:56:34.247Z,1016.51
2016-12-14T04:57:34.229Z,1016.5
2016-12-14T04:58:34.220Z,1016.52
2016-12-14T04:59:34.196Z,1016.51
2016-12-14T05:00:34.180Z,1016.49
2016-12-14T05:01:34.163Z,1016.47
2016-12-14T05:02:34.150Z,1016.47
2016-12-14T05:03:34.131Z,1016.48
2016-12-14T05:04:34.113Z,1016.45
2016-12-14T05:05:34.098Z,1016.49
2016-12-14T05:06:34.079Z,1016.51
2016-12-14T05:07:34.064Z,1016.47
2016-12-14T05:08:34.049Z,1016.5
2016-12-14T05:09:34.031Z,1016.49
2016-12-14T05:10:34.011Z,1016.45
2016-12-14T05:11:33.995Z,1016.45
2016-12-14T05:12:33.979Z,1016.43
2016-12-14T05:13:33.964Z,1016.44
2016-12-14T05:14:33.945Z,1016.49
2016-12-14T05:15:33.929Z,1016.44
2016-12-14T05:16:33.914Z,1016.48
2016-12-14T05:17:33.896Z,1016.51
2016-12-14T05:18:33.879Z,1016.51
2016-12-14T05:19:33.861Z,1016.49
2016-12-14T05:20:33.847Z,1016.48
2016-12-14T05:21:33.829Z,1016.5
2016-12-14T05:22:33.812Z,1016.49
2016-12-14T05:23:33.806Z,1016.56
2016-12-14T05:24:33.779Z,1016.54
2016-12-14T05:25:33.765Z,1016.6
2016-12-14T05:26:33.745Z,1016.57
2016-12-14T05:27:33.730Z,1016.62
2016-12-14T05:28:33.713Z,1016.62
2016-12-14T05:29:33.695Z,1016.54
2016-12-14T05:30:33.679Z,1016.56
2016-12-14T05:31:33.663Z,1016.57
2016-12-14T05:32:33.646Z,1016.58
2016-12-14T05:33:33.628Z,1016.59
2016-12-14T05:34:33.616Z,1016.66
2016-12-14T05:35:33.596Z,1016.65
2016-12-14T05:36:33.585Z,1016.67
2016-12-14T05:37:33.562Z,1016.65
2016-12-14T05:38:33.547Z,1016.59
2016-12-14T05:39:33.529Z,1016.55
2016-12-14T05:40:33.514Z,1016.48
2016-12-14T05:41:33.497Z,1016.5
2016-12-14T05:42:33.479Z,1016.52
2016-12-14T05:43:33.465Z,1016.56
2016-12-14T05:44:33.445Z,1016.57
2016-12-14T05:45:33.434Z,1016.61
2016-12-14T05:46:33.413Z,1016.63
2016-12-14T05:47:33.401Z,1016.65
2016-12-14T05:48:33.380Z,1016.64
2016-12-14T05:49:33.363Z,1016.67
2016-12-14T05:50:33.350Z,1016.63
2016-12-14T05:51:33.331Z,1016.69
2016-12-14T05:52:33.311Z,1016.66
2016-12-14T05:53:33.298Z,1016.69
2016-12-14T05:54:33.281Z,1016.64
2016-12-14T05:55:33.264Z,1016.66
2016-12-14T05:56:33.251Z,1016.63
2016-12-14T05:57:33.232Z,1016.64
2016-12-14T05:58:33.216Z,1016.66
2016-12-14T05:59:33.199Z,1016.64
2016-12-14T06:00:33.182Z,1016.65
2016-12-14T06:01:33.167Z,1016.63
2016-12-14T06:02:33.149Z,1016.63
2016-12-14T06:03:33.138Z,1016.68
2016-12-14T06:04:33.117Z,1016.69
2016-12-14T06:05:33.106Z,1016.66
2016-12-14T06:06:33.084Z,1016.63
2016-12-14T06:07:33.067Z,1016.66
2016-12-14T06:08:33.052Z,1016.62
2016-12-14T06:09:33.037Z,1016.67
2016-12-14T06:10:33.017Z,1016.69
2016-12-14T06:11:33.003Z,1016.67
2016-12-14T06:12:32.988Z,1016.68
2016-12-14T06:13:32.970Z,1016.7
2016-12-14T06:14:32.957Z,1016.66
2016-12-14T06:15:32.936Z,1016.7
2016-12-14T06:16:32.923Z,1016.67
2016-12-14T06:17:32.904Z,1016.68
2016-12-14T06:18:32.888Z,1016.68
2016-12-14T06:19:32.871Z,1016.67
2016-12-14T06:20:32.860Z,1016.65
2016-12-14T06:21:32.839Z,1016.66
2016-12-14T06:22:32.821Z,1016.68
2016-12-14T06:23:32.806Z,1016.68
2016-12-14T06:24:32.791Z,1016.7
2016-12-14T06:25:32.773Z,1016.67
2016-12-14T06:26:32.757Z,1016.63
2016-12-14T06:27:32.739Z,1016.63
2016-12-14T06:28:32.723Z,1016.63
2016-12-14T06:29:32.707Z,1016.66
2016-12-14T06:30:32.692Z,1016.64
2016-12-14T06:31:32.674Z,1016.67
2016-12-14T06:32:32.657Z,1016.63
2016-12-14T06:33:32.642Z,1016.66
2016-12-14T06:34:32.625Z,1016.71
2016-12-14T06:35:32.608Z,1016.74
2016-12-14T06:36:32.594Z,1016.75
2016-12-14T06:37:32.575Z,1016.77
2016-12-14T06:38:32.560Z,1016.75
2016-12-14T06:39:32.543Z,1016.77
2016-12-14T06:40:32.528Z,1016.78
2016-12-14T06:41:32.511Z,1016.74
2016-12-14T06:42:32.495Z,1016.76
2016-12-14T06:43:32.482Z,1016.7
2016-12-14T06:44:32.461Z,1016.72
2016-12-14T06:45:32.446Z,1016.65
2016-12-14T06:46:32.430Z,1016.66
2016-12-14T06:47:32.414Z,1016.59
2016-12-14T06:48:32.396Z,1016.63
2016-12-14T06:49:32.385Z,1016.65
2016-12-14T06:50:32.364Z,1016.65
2016-12-14T06:51:32.347Z,1016.68
2016-12-14T06:52:32.331Z,1016.69
2016-12-14T06:53:32.318Z,1016.7
2016-12-14T06:54:32.299Z,1016.72
2016-12-14T06:55:32.282Z,1016.72
2016-12-14T06:56:32.267Z,1016.72
2016-12-14T06:57:32.251Z,1016.75
2016-12-14T06:58:32.232Z,1016.77
2016-12-14T06:59:32.218Z,1016.79
2016-12-14T07:00:32.199Z,1016.82
2016-12-14T07:01:32.185Z,1016.81
2016-12-14T07:02:32.167Z,1016.83
2016-12-14T07:03:32.157Z,1016.85
2016-12-14T07:04:32.135Z,1016.84
2016-12-14T07:05:32.118Z,1016.92
2016-12-14T07:06:32.105Z,1016.89
2016-12-14T07:07:32.088Z,1016.94
2016-12-14T07:08:32.070Z,1016.92
2016-12-14T07:09:32.055Z,1016.94
2016-12-14T07:10:32.039Z,1016.97
2016-12-14T07:11:32.028Z,1016.97
2016-12-14T07:12:32.007Z,1016.99
2016-12-14T07:13:31.988Z,1016.93
2016-12-14T07:14:31.972Z,1016.97
2016-12-14T07:15:31.955Z,1016.98
2016-12-14T07:16:31.940Z,1017
2016-12-14T07:17:31.924Z,1016.98
2016-12-14T07:18:31.908Z,1016.97
2016-12-14T07:19:31.891Z,1016.94
2016-12-14T07:20:31.928Z,1016.92
2016-12-14T07:21:31.860Z,1016.94
2016-12-14T07:22:31.843Z,1016.97
2016-12-14T07:23:31.826Z,1017
2016-12-14T07:24:31.808Z,1016.97
2016-12-14T07:25:31.792Z,1016.98
2016-12-14T07:26:31.785Z,1017.05
2016-12-14T07:27:31.761Z,1017.03
2016-12-14T07:28:31.744Z,1017.05
2016-12-14T07:29:31.730Z,1017.08
2016-12-14T07:30:31.715Z,1017.06
2016-12-14T07:31:31.696Z,1017.07
2016-12-14T07:32:31.679Z,1017.08
2016-12-14T07:33:31.662Z,1017.12
2016-12-14T07:34:31.646Z,1017.15
2016-12-14T07:35:31.631Z,1017.13
2016-12-14T07:36:31.616Z,1017.16
2016-12-14T07:37:31.599Z,1017.14
2016-12-14T07:38:31.586Z,1017.18
2016-12-14T07:39:31.568Z,1017.2
2016-12-14T07:40:31.605Z,1017.24
2016-12-14T07:41:31.534Z,1017.21
2016-12-14T07:42:31.519Z,1017.26
2016-12-14T07:43:31.503Z,1017.24
2016-12-14T07:44:31.486Z,1017.25
2016-12-14T07:45:31.469Z,1017.28
2016-12-14T07:46:31.454Z,1017.28
2016-12-14T07:47:31.439Z,1017.31
2016-12-14T07:48:31.421Z,1017.26
2016-12-14T07:49:31.403Z,1017.37
2016-12-14T07:50:31.389Z,1017.38
2016-12-14T07:51:31.373Z,1017.43
2016-12-14T07:52:31.356Z,1017.4
2016-12-14T07:53:31.345Z,1017.4
2016-12-14T07:54:31.326Z,1017.47
2016-12-14T07:55:31.309Z,1017.47
2016-12-14T07:56:31.292Z,1017.47
2016-12-14T07:57:31.276Z,1017.48
2016-12-14T07:58:31.259Z,1017.45
2016-12-14T07:59:31.242Z,1017.46
2016-12-14T08:00:31.230Z,1017.46
2016-12-14T08:01:31.212Z,1017.5
2016-12-14T08:02:31.196Z,1017.48
2016-12-14T08:03:31.179Z,1017.45
2016-12-14T08:04:31.164Z,1017.52
2016-12-14T08:05:31.148Z,1017.52
2016-12-14T08:06:31.133Z,1017.54
2016-12-14T08:07:31.112Z,1017.58
2016-12-14T08:08:31.097Z,1017.54
2016-12-14T08:09:31.082Z,1017.61
2016-12-14T08:10:31.064Z,1017.58
2016-12-14T08:11:31.049Z,1017.55
2016-12-14T08:12:31.032Z,1017.55
2016-12-14T08:13:31.070Z,1017.53
2016-12-14T08:14:31.001Z,1017.56
2016-12-14T08:15:30.984Z,1017.57
2016-12-14T08:16:30.969Z,1017.56
2016-12-14T08:17:30.956Z,1017.59
2016-12-14T08:18:30.936Z,1017.57
2016-12-14T08:19:30.919Z,1017.56
2016-12-14T08:20:30.904Z,1017.57
2016-12-14T08:21:30.887Z,1017.57
2016-12-14T08:22:30.871Z,1017.58
2016-12-14T08:23:30.854Z,1017.6
2016-12-14T08:24:30.840Z,1017.61
2016-12-14T08:25:30.822Z,1017.6
2016-12-14T08:26:30.806Z,1017.57
2016-12-14T08:27:30.795Z,1017.6
2016-12-14T08:28:30.774Z,1017.64
2016-12-14T08:29:30.759Z,1017.6
2016-12-14T08:30:30.744Z,1017.67
2016-12-14T08:31:30.726Z,1017.66
2016-12-14T08:32:30.709Z,1017.66
2016-12-14T08:33:30.694Z,1017.65
2016-12-14T08:34:30.680Z,1017.66
2016-12-14T08:35:30.661Z,1017.64
2016-12-14T08:36:30.644Z,1017.68
2016-12-14T08:37:30.631Z,1017.68
2016-12-14T08:38:30.614Z,1017.7
2016-12-14T08:39:30.602Z,1017.73
2016-12-14T08:40:30.581Z,1017.72
2016-12-14T08:41:30.566Z,1017.72
2016-12-14T08:42:30.549Z,1017.7
2016-12-14T08:43:30.532Z,1017.76
2016-12-14T08:44:30.516Z,1017.74
2016-12-14T08:45:30.500Z,1017.71
2016-12-14T08:46:30.482Z,1017.79
2016-12-14T08:47:30.467Z,1017.74
2016-12-14T08:48:30.451Z,1017.79
2016-12-14T08:49:30.438Z,1017.74
2016-12-14T08:50:30.419Z,1017.79
2016-12-14T08:51:30.404Z,1017.79
2016-12-14T08:52:30.387Z,1017.83
2016-12-14T08:53:30.371Z,1017.86
2016-12-14T08:54:30.354Z,1017.84
2016-12-14T08:55:30.339Z,1017.88
2016-12-14T08:56:30.324Z,1017.9
2016-12-14T08:57:30.307Z,1017.84
2016-12-14T08:58:30.289Z,1017.92
2016-12-14T08:59:30.275Z,1017.94
2016-12-14T09:00:30.259Z,1017.93
2016-12-14T09:01:30.244Z,1017.93
2016-12-14T09:02:30.226Z,1017.94
2016-12-14T09:03:30.207Z,1017.94
2016-12-14T09:04:30.194Z,1017.94
2016-12-14T09:05:30.177Z,1017.94
2016-12-14T09:06:30.172Z,1017.94
2016-12-14T09:07:30.150Z,1017.96
2016-12-14T09:08:30.129Z,1017.94
2016-12-14T09:09:30.119Z,1017.93
2016-12-14T09:10:30.096Z,1017.97
2016-12-14T09:11:30.085Z,1017.93
2016-12-14T09:12:30.066Z,1017.98
2016-12-14T09:13:30.049Z,1017.97
2016-12-14T09:14:30.034Z,1018.01
2016-12-14T09:15:30.022Z,1018.01
2016-12-14T09:16:30.001Z,1018
2016-12-14T09:17:29.987Z,1018.04
2016-12-14T09:18:32.521Z,1018.06
2016-12-14T09:19:29.954Z,1018.03
2016-12-14T09:20:29.936Z,1018.05
2016-12-14T09:21:29.921Z,1018.03
2016-12-14T09:22:29.908Z,1018
2016-12-14T09:23:29.889Z,1018.02
2016-12-14T09:24:29.873Z,1018.03
2016-12-14T09:25:29.856Z,1018.02
2016-12-14T09:26:29.843Z,1018.02
2016-12-14T09:27:29.826Z,1018.05
2016-12-14T09:28:29.808Z,1018.08
2016-12-14T09:29:29.792Z,1018.14
2016-12-14T09:30:29.778Z,1018.11
2016-12-14T09:31:29.763Z,1018.12
2016-12-14T09:32:29.744Z,1018.1
2016-12-14T09:33:29.729Z,1018.11
2016-12-14T09:34:29.712Z,1018.08
2016-12-14T09:35:29.699Z,1018.08
2016-12-14T09:36:29.683Z,1018.06
2016-12-14T09:37:29.666Z,1018.09
2016-12-14T09:38:29.647Z,1018.08
2016-12-14T09:39:30.031Z,1018.08
2016-12-14T09:40:29.613Z,1018.06
2016-12-14T09:41:29.599Z,1018.07
2016-12-14T09:42:29.582Z,1018.04
2016-12-14T09:43:29.566Z,1018.07
2016-12-14T09:44:29.550Z,1018.04
2016-12-14T09:45:29.534Z,1018.08
2016-12-14T09:46:29.519Z,1018.09
2016-12-14T09:47:29.501Z,1018.11
2016-12-14T09:48:29.484Z,1018.11
2016-12-14T09:49:29.467Z,1018.11
2016-12-14T09:50:29.452Z,1018.1
2016-12-14T09:51:29.436Z,1018.12
2016-12-14T09:52:29.420Z,1018.13
2016-12-14T09:53:29.404Z,1018.16
2016-12-14T09:54:29.389Z,1018.12
2016-12-14T09:55:29.371Z,1018.13
2016-12-14T09:56:29.354Z,1018.12
2016-12-14T09:57:29.340Z,1018.15
2016-12-14T09:58:29.322Z,1018.17
2016-12-14T09:59:29.306Z,1018.17
2016-12-14T10:00:29.290Z,1018.19
2016-12-14T10:01:29.275Z,1018.16
2016-12-14T10:02:29.257Z,1018.19
2016-12-14T10:03:29.242Z,1018.22
2016-12-14T10:04:29.224Z,1018.26
2016-12-14T10:05:29.209Z,1018.23
2016-12-14T10:06:29.192Z,1018.23
2016-12-14T10:07:29.176Z,1018.26
2016-12-14T10:08:29.165Z,1018.25
2016-12-14T10:09:29.153Z,1018.24
2016-12-14T10:10:29.131Z,1018.24
2016-12-14T10:11:29.112Z,1018.28
2016-12-14T10:12:29.095Z,1018.28
2016-12-14T10:13:29.080Z,1018.25
2016-12-14T10:14:29.064Z,1018.26
2016-12-14T10:15:29.048Z,1018.3
2016-12-14T10:16:29.034Z,1018.3
2016-12-14T10:17:29.014Z,1018.31
2016-12-14T10:18:28.998Z,1018.29
2016-12-14T10:19:28.984Z,1018.3
2016-12-14T10:20:28.967Z,1018.31
2016-12-14T10:21:28.950Z,1018.33
2016-12-14T10:22:28.934Z,1018.29
2016-12-14T10:23:28.917Z,1018.33
2016-12-14T10:24:28.902Z,1018.27
2016-12-14T10:25:28.891Z,1018.25
2016-12-14T10:26:28.870Z,1018.29
2016-12-14T10:27:28.854Z,1018.23
2016-12-14T10:28:28.837Z,1018.26
2016-12-14T10:29:28.822Z,1018.27
2016-12-14T10:30:28.805Z,1018.3
2016-12-14T10:31:28.790Z,1018.28
2016-12-14T10:32:28.781Z,1018.28
2016-12-14T10:33:28.757Z,1018.31
2016-12-14T10:34:28.741Z,1018.32
2016-12-14T10:35:28.725Z,1018.32
2016-12-14T10:36:28.710Z,1018.37
2016-12-14T10:37:28.692Z,1018.36
2016-12-14T10:38:28.677Z,1018.35
2016-12-14T10:39:28.660Z,1018.35
2016-12-14T10:40:28.642Z,1018.33
2016-12-14T10:41:28.628Z,1018.37
2016-12-14T10:42:28.617Z,1018.33
2016-12-14T10:43:28.599Z,1018.37
2016-12-14T10:44:28.580Z,1018.33
2016-12-14T10:45:28.564Z,1018.4
2016-12-14T10:46:28.547Z,1018.35
2016-12-14T10:47:28.534Z,1018.37
2016-12-14T10:48:28.517Z,1018.38
2016-12-14T10:49:28.504Z,1018.35
2016-12-14T10:50:28.488Z,1018.35
2016-12-14T10:51:28.468Z,1018.42
2016-12-14T10:52:28.454Z,1018.36
2016-12-14T10:53:28.435Z,1018.39
2016-12-14T10:54:28.420Z,1018.37
2016-12-14T10:55:28.403Z,1018.36
2016-12-14T10:56:28.388Z,1018.37
2016-12-14T10:57:28.372Z,1018.35
2016-12-14T10:58:28.357Z,1018.38
2016-12-14T10:59:28.338Z,1018.34
2016-12-14T11:00:28.323Z,1018.35
2016-12-14T11:01:28.308Z,1018.36
2016-12-14T11:02:28.293Z,1018.35
2016-12-14T11:03:28.277Z,1018.4
2016-12-14T11:04:28.258Z,1018.39
2016-12-14T11:05:28.243Z,1018.4
2016-12-14T11:06:28.228Z,1018.43
2016-12-14T11:07:28.212Z,1018.43
2016-12-14T11:08:28.195Z,1018.45
2016-12-14T11:09:28.181Z,1018.44
2016-12-14T11:10:28.161Z,1018.5
2016-12-14T11:11:28.148Z,1018.44
2016-12-14T11:12:28.131Z,1018.45
2016-12-14T11:13:28.113Z,1018.42
2016-12-14T11:14:28.098Z,1018.43
2016-12-14T11:15:28.080Z,1018.43
2016-12-14T11:16:28.069Z,1018.4
2016-12-14T11:17:28.049Z,1018.44
2016-12-14T11:18:28.034Z,1018.48
2016-12-14T11:19:28.016Z,1018.48
2016-12-14T11:20:27.999Z,1018.46
2016-12-14T11:21:27.984Z,1018.4
2016-12-14T11:22:27.969Z,1018.45
2016-12-14T11:23:27.951Z,1018.39
2016-12-14T11:24:27.940Z,1018.43
2016-12-14T11:25:27.919Z,1018.42
2016-12-14T11:26:27.907Z,1018.37
2016-12-14T11:27:27.889Z,1018.39
2016-12-14T11:28:27.872Z,1018.35
2016-12-14T11:29:27.857Z,1018.37
2016-12-14T11:30:27.841Z,1018.35
2016-12-14T11:31:27.822Z,1018.36
2016-12-14T11:32:27.815Z,1018.34
2016-12-14T11:33:27.792Z,1018.31
2016-12-14T11:34:27.775Z,1018.35
2016-12-14T11:35:27.756Z,1018.33
2016-12-14T11:36:27.742Z,1018.28
2016-12-14T11:37:27.728Z,1018.32
2016-12-14T11:38:27.709Z,1018.29
2016-12-14T11:39:27.697Z,1018.33
2016-12-14T11:40:27.677Z,1018.34
2016-12-14T11:41:27.666Z,1018.34
2016-12-14T11:42:27.645Z,1018.33
2016-12-14T11:43:27.629Z,1018.31
2016-12-14T11:44:27.612Z,1018.31
2016-12-14T11:45:27.597Z,1018.26
2016-12-14T11:46:27.580Z,1018.28
2016-12-14T11:47:27.574Z,1018.31
2016-12-14T11:48:27.574Z,1018.33
2016-12-14T11:49:27.532Z,1018.31
2016-12-14T11:50:27.516Z,1018.33
2016-12-14T11:51:27.502Z,1018.32
2016-12-14T11:52:27.485Z,1018.36
2016-12-14T11:53:27.470Z,1018.34
2016-12-14T11:54:27.452Z,1018.32
2016-12-14T11:55:27.436Z,1018.31
2016-12-14T11:56:27.419Z,1018.34
2016-12-14T11:57:27.403Z,1018.32
2016-12-14T11:58:27.388Z,1018.32
2016-12-14T11:59:27.373Z,1018.31
2016-12-14T12:00:27.358Z,1018.31
2016-12-14T12:01:27.339Z,1018.27
2016-12-14T12:02:27.323Z,1018.31
2016-12-14T12:03:27.308Z,1018.33
2016-12-14T12:04:27.291Z,1018.26
2016-12-14T12:05:27.276Z,1018.33
2016-12-14T12:06:27.258Z,1018.3
2016-12-14T12:07:27.241Z,1018.25
2016-12-14T12:08:27.226Z,1018.3